createdAt,value
2023-03-13T00:00:36.623Z,6.05
2023-03-13T00:03:03.126Z,6.00
2023-03-13T00:05:29.550Z,5.98
2023-03-13T00:07:55.922Z,6.00
2023-03-13T00:10:22.308Z,5.99
2023-03-13T00:12:48.758Z,6.05
2023-03-13T00:15:15.360Z,6.00
2023-03-13T00:17:42.364Z,5.95
2023-03-13T00:20:10.384Z,5.77
2023-03-13T00:22:36.740Z,5.74
2023-03-13T00:25:03.356Z,5.70
2023-03-13T00:27:33.048Z,5.62
2023-03-13T00:30:00.228Z,5.61
2023-03-13T00:32:27.127Z,5.62
2023-03-13T00:34:54.156Z,5.56
2023-03-13T00:37:20.548Z,5.58
2023-03-13T00:39:47.416Z,5.56
2023-03-13T00:42:13.927Z,5.51
2023-03-13T00:44:40.370Z,5.48
2023-03-13T00:47:07.204Z,5.44
2023-03-13T00:49:33.560Z,5.37
2023-03-13T00:52:00.764Z,5.41
2023-03-13T00:54:27.158Z,5.30
2023-03-13T00:56:53.511Z,5.25
2023-03-13T00:59:20.680Z,5.17
2023-03-13T01:01:47.962Z,5.13
2023-03-13T01:04:14.564Z,5.11
2023-03-13T01:06:42.140Z,5.06
2023-03-13T01:09:11.079Z,4.99
2023-03-13T01:11:39.996Z,4.97
2023-03-13T01:14:08.823Z,4.96
2023-03-13T01:16:36.460Z,4.85
2023-03-13T01:19:05.730Z,4.91
2023-03-13T01:21:32.351Z,4.92
2023-03-13T01:23:58.798Z,4.83
2023-03-13T01:26:26.442Z,4.83
2023-03-13T01:28:54.203Z,4.78
2023-03-13T01:31:22.644Z,4.76
2023-03-13T01:33:50.849Z,4.80
2023-03-13T01:36:18.276Z,4.73
2023-03-13T01:38:48.248Z,4.63
2023-03-13T01:41:14.718Z,4.61
2023-03-13T01:43:44.378Z,4.66
2023-03-13T01:46:13.276Z,4.57
2023-03-13T01:49:06.716Z,4.55
2023-03-13T01:51:41.649Z,4.55
2023-03-13T01:54:11.421Z,4.57
2023-03-13T01:56:42.739Z,4.67
2023-03-13T01:59:13.793Z,4.65
2023-03-13T02:01:42.703Z,4.57
2023-03-13T02:04:12.585Z,4.47
2023-03-13T02:06:43.367Z,4.55
2023-03-13T02:09:14.311Z,4.52
2023-03-13T02:11:48.377Z,4.56
2023-03-13T02:14:16.841Z,4.60
2023-03-13T02:16:46.971Z,4.57
2023-03-13T02:19:18.496Z,4.60
2023-03-13T02:21:51.196Z,4.53
2023-03-13T02:24:27.640Z,4.55
2023-03-13T02:26:55.077Z,4.48
2023-03-13T02:29:21.591Z,4.58
2023-03-13T02:31:48.519Z,4.52
2023-03-13T02:34:20.131Z,4.50
2023-03-13T02:36:47.483Z,4.52
2023-03-13T02:39:17.917Z,4.49
2023-03-13T02:41:45.680Z,4.51
2023-03-13T02:44:13.018Z,4.45
2023-03-13T02:46:47.805Z,4.45
2023-03-13T02:49:24.140Z,4.37
2023-03-13T02:51:52.490Z,4.33
2023-03-13T02:54:22.583Z,4.26
2023-03-13T02:56:53.706Z,4.29
2023-03-13T02:59:21.140Z,4.31
2023-03-13T03:01:51.897Z,4.34
2023-03-13T03:04:20.529Z,4.37
2023-03-13T03:06:52.993Z,4.35
2023-03-13T03:09:20.473Z,4.34
2023-03-13T03:11:47.008Z,4.37
2023-03-13T03:14:15.512Z,4.45
2023-03-13T03:16:45.693Z,4.41
2023-03-13T03:19:12.388Z,4.52
2023-03-13T03:21:39.018Z,4.63
2023-03-13T03:24:06.236Z,4.66
2023-03-13T03:26:32.787Z,4.62
2023-03-13T03:28:59.374Z,4.65
2023-03-13T03:31:26.154Z,4.63
2023-03-13T03:33:53.512Z,4.68
2023-03-13T03:36:21.926Z,4.76
2023-03-13T03:38:49.364Z,4.75
2023-03-13T03:41:18.796Z,4.68
2023-03-13T03:43:46.981Z,4.62
2023-03-13T03:46:16.009Z,4.55
2023-03-13T03:48:43.049Z,4.60
2023-03-13T03:51:11.565Z,4.67
2023-03-13T03:53:40.737Z,4.76
2023-03-13T03:56:07.674Z,4.77
2023-03-13T03:58:36.490Z,4.86
2023-03-13T04:01:32.051Z,4.95
2023-03-13T04:03:58.731Z,4.86
2023-03-13T04:06:25.794Z,4.83
2023-03-13T04:08:52.273Z,4.82
2023-03-13T04:11:22.582Z,4.84
2023-03-13T04:13:52.745Z,4.89
2023-03-13T04:16:19.303Z,4.93
2023-03-13T04:18:47.198Z,4.89
2023-03-13T04:21:14.863Z,4.86
2023-03-13T04:23:45.900Z,4.97
2023-03-13T04:26:13.705Z,4.94
2023-03-13T04:28:41.190Z,4.98
2023-03-13T04:31:09.287Z,4.90
2023-03-13T04:33:54.226Z,4.94
2023-03-13T04:36:32.401Z,5.01
2023-03-13T04:39:28.512Z,5.01
2023-03-13T04:42:13.712Z,5.09
2023-03-13T04:45:01.941Z,5.27
2023-03-13T04:47:55.336Z,5.31
2023-03-13T04:50:40.409Z,5.22
2023-03-13T04:53:27.066Z,5.21
2023-03-13T04:56:03.159Z,5.31
2023-03-13T04:58:49.945Z,5.33
2023-03-13T05:01:45.654Z,5.31
2023-03-13T05:04:18.026Z,5.30
2023-03-13T05:07:04.820Z,5.33
2023-03-13T05:10:10.359Z,5.37
2023-03-13T05:12:47.193Z,5.41
2023-03-13T05:15:36.766Z,5.38
2023-03-13T05:18:32.423Z,5.54
2023-03-13T05:21:10.258Z,5.49
2023-03-13T05:23:52.205Z,5.56
2023-03-13T05:26:32.148Z,5.68
2023-03-13T05:29:10.472Z,5.75
2023-03-13T05:32:15.541Z,5.78
2023-03-13T05:35:20.624Z,5.76
2023-03-13T05:38:05.805Z,5.77
2023-03-13T05:40:54.914Z,5.78
2023-03-13T05:43:41.545Z,5.83
2023-03-13T05:46:18.928Z,5.84
2023-03-13T05:49:04.853Z,5.93
2023-03-13T05:51:43.049Z,5.93
2023-03-13T05:54:26.296Z,6.06
2023-03-13T05:57:21.182Z,6.07
2023-03-13T06:00:29.429Z,6.21
2023-03-13T06:03:13.874Z,6.41
2023-03-13T06:05:43.970Z,6.58
2023-03-13T06:08:29.223Z,6.95
2023-03-13T06:10:59.289Z,7.19
2023-03-13T06:13:25.874Z,7.36
2023-03-13T06:15:55.624Z,7.39
2023-03-13T06:18:39.102Z,7.69
2023-03-13T06:21:05.959Z,7.79
2023-03-13T06:23:32.448Z,7.98
2023-03-13T06:26:00.265Z,8.02
2023-03-13T06:28:26.932Z,8.07
2023-03-13T06:30:53.937Z,8.12
2023-03-13T06:33:20.606Z,8.24
2023-03-13T06:35:56.128Z,8.20
2023-03-13T06:38:23.311Z,8.24
2023-03-13T06:40:49.910Z,8.26
2023-03-13T06:43:16.424Z,8.30
2023-03-13T06:45:42.857Z,8.23
2023-03-13T06:48:09.304Z,8.25
2023-03-13T06:50:38.192Z,8.17
2023-03-13T06:53:05.631Z,8.09
2023-03-13T06:55:32.194Z,8.07
2023-03-13T06:57:58.649Z,8.04
2023-03-13T07:00:27.988Z,8.02
2023-03-13T07:02:54.708Z,8.18
2023-03-13T07:05:21.166Z,8.17
2023-03-13T07:07:47.679Z,8.15
2023-03-13T07:10:14.832Z,8.11
2023-03-13T07:12:41.258Z,8.24
2023-03-13T07:15:08.146Z,8.33
2023-03-13T07:17:34.719Z,8.37
2023-03-13T07:20:01.315Z,8.37
2023-03-13T07:22:27.772Z,8.60
2023-03-13T07:24:54.304Z,8.57
2023-03-13T07:27:22.154Z,8.70
2023-03-13T07:29:48.614Z,8.76
2023-03-13T07:32:15.352Z,8.77
2023-03-13T07:34:43.808Z,8.83
2023-03-13T07:37:10.505Z,8.86
2023-03-13T07:39:39.821Z,9.34
2023-03-13T07:42:06.620Z,10.28
2023-03-13T07:44:34.428Z,10.56
2023-03-13T07:47:01.239Z,10.47
2023-03-13T07:49:27.807Z,10.18
2023-03-13T07:51:54.262Z,10.31
2023-03-13T07:54:20.755Z,10.47
2023-03-13T07:56:48.094Z,10.59
2023-03-13T07:59:14.470Z,10.73
2023-03-13T08:01:41.533Z,11.09
2023-03-13T08:04:12.249Z,11.26
2023-03-13T08:06:40.313Z,11.30
2023-03-13T08:09:06.804Z,11.06
2023-03-13T08:11:33.748Z,11.08
2023-03-13T08:14:00.188Z,11.37
2023-03-13T08:16:28.277Z,11.18
2023-03-13T08:18:56.921Z,11.12
2023-03-13T08:21:25.466Z,11.07
2023-03-13T08:23:53.592Z,11.04
2023-03-13T08:26:21.936Z,11.14
2023-03-13T08:28:53.467Z,11.32
2023-03-13T08:31:22.551Z,11.08
2023-03-13T08:33:49.535Z,11.12
2023-03-13T08:36:19.098Z,11.12
2023-03-13T08:38:46.875Z,10.70
2023-03-13T08:41:15.341Z,10.50
2023-03-13T08:43:41.813Z,10.56
2023-03-13T08:46:08.388Z,10.49
2023-03-13T08:48:35.044Z,10.51
2023-03-13T08:51:02.627Z,10.61
2023-03-13T08:53:30.290Z,10.63
2023-03-13T08:55:56.907Z,10.61
2023-03-13T08:58:23.533Z,10.69
2023-03-13T09:00:49.963Z,10.89
2023-03-13T09:03:17.246Z,11.00
2023-03-13T09:05:55.711Z,11.34
2023-03-13T09:08:22.949Z,11.66
2023-03-13T09:10:55.315Z,11.82
2023-03-13T09:13:21.742Z,11.81
2023-03-13T09:15:54.052Z,11.78
2023-03-13T09:18:20.598Z,11.83
2023-03-13T09:20:48.943Z,11.94
2023-03-13T09:23:15.879Z,11.86
2023-03-13T09:25:42.503Z,11.99
2023-03-13T09:28:09.678Z,12.18
2023-03-13T09:30:36.394Z,12.50
2023-03-13T09:33:05.604Z,12.81
2023-03-13T09:35:32.158Z,12.99
2023-03-13T09:37:58.542Z,13.09
2023-03-13T09:40:27.010Z,12.80
2023-03-13T09:42:56.906Z,12.80
2023-03-13T09:45:33.168Z,13.04
2023-03-13T09:48:04.464Z,13.30
2023-03-13T09:50:35.584Z,13.54
2023-03-13T09:53:10.974Z,13.96
2023-03-13T09:55:40.935Z,14.13
2023-03-13T09:58:13.659Z,14.41
2023-03-13T10:00:44.442Z,14.64
2023-03-13T10:03:16.981Z,14.91
2023-03-13T10:05:47.363Z,14.78
2023-03-13T10:08:17.202Z,15.02
2023-03-13T10:10:47.013Z,15.15
2023-03-13T10:13:22.476Z,15.23
2023-03-13T10:15:53.646Z,15.21
2023-03-13T10:18:22.241Z,15.40
2023-03-13T10:20:50.070Z,15.31
2023-03-13T10:23:22.273Z,15.19
2023-03-13T10:25:48.667Z,15.18
2023-03-13T10:28:16.625Z,15.35
2023-03-13T10:30:48.009Z,15.65
2023-03-13T10:33:26.518Z,15.97
2023-03-13T10:36:08.364Z,15.84
2023-03-13T10:38:44.817Z,16.02
2023-03-13T10:41:23.208Z,16.14
2023-03-13T10:43:51.735Z,15.99
2023-03-13T10:46:24.862Z,15.84
2023-03-13T10:48:54.491Z,15.84
2023-03-13T10:51:22.984Z,15.73
2023-03-13T10:53:50.745Z,15.88
2023-03-13T10:56:25.258Z,16.09
2023-03-13T10:58:52.854Z,16.25
2023-03-13T11:01:22.181Z,16.24
2023-03-13T11:03:50.704Z,16.20
2023-03-13T11:06:29.736Z,16.37
2023-03-13T11:09:04.849Z,16.44
2023-03-13T11:11:44.356Z,16.51
2023-03-13T11:14:15.111Z,16.80
2023-03-13T11:16:48.620Z,17.10
2023-03-13T11:19:51.031Z,16.85
2023-03-13T11:22:43.952Z,16.79
2023-03-13T11:25:20.124Z,17.03
2023-03-13T11:27:55.353Z,17.14
2023-03-13T11:30:35.961Z,17.25
2023-03-13T11:33:22.681Z,17.23
2023-03-13T11:35:54.281Z,17.23
2023-03-13T11:38:28.675Z,17.18
2023-03-13T11:41:08.028Z,17.07
2023-03-13T11:43:56.023Z,16.95
2023-03-13T11:46:33.084Z,16.90
2023-03-13T11:49:14.930Z,17.13
2023-03-13T11:51:54.617Z,17.08
2023-03-13T11:54:43.901Z,17.23
2023-03-13T11:57:15.366Z,17.18
2023-03-13T11:59:52.442Z,17.23
2023-03-13T12:02:25.624Z,17.47
2023-03-13T12:04:56.261Z,17.25
2023-03-13T12:07:30.000Z,17.11
2023-03-13T12:10:00.788Z,17.00
2023-03-13T12:12:37.288Z,17.24
2023-03-13T12:15:19.048Z,17.28
2023-03-13T12:17:50.927Z,17.29
2023-03-13T12:20:23.776Z,17.33
2023-03-13T12:23:04.193Z,17.15
2023-03-13T12:25:38.827Z,17.24
2023-03-13T12:28:18.466Z,17.14
2023-03-13T12:30:52.191Z,17.30
2023-03-13T12:33:24.480Z,17.37
2023-03-13T12:35:57.813Z,17.36
2023-03-13T12:38:30.226Z,17.53
2023-03-13T12:41:10.639Z,17.78
2023-03-13T12:43:39.809Z,17.53
2023-03-13T12:46:32.866Z,17.39
2023-03-13T12:49:31.766Z,17.56
2023-03-13T12:52:25.701Z,17.66
2023-03-13T12:55:05.839Z,17.37
2023-03-13T12:58:06.093Z,17.48
2023-03-13T13:00:36.138Z,17.71
2023-03-13T13:03:10.364Z,17.84
2023-03-13T13:05:36.840Z,17.98
2023-03-13T13:08:03.957Z,17.95
2023-03-13T13:10:30.643Z,18.16
2023-03-13T13:13:29.071Z,18.19
2023-03-13T13:16:02.373Z,18.29
2023-03-13T13:18:29.921Z,18.55
2023-03-13T13:21:26.283Z,18.30
2023-03-13T13:23:55.740Z,18.37
2023-03-13T13:26:48.037Z,18.39
2023-03-13T13:29:56.566Z,18.15
2023-03-13T13:32:44.523Z,18.29
2023-03-13T13:35:29.412Z,18.42
2023-03-13T13:38:35.943Z,18.47
2023-03-13T13:41:05.718Z,18.34
2023-03-13T13:43:33.786Z,18.44
2023-03-13T13:46:06.504Z,18.26
2023-03-13T13:48:35.716Z,18.52
2023-03-13T13:51:32.681Z,18.32
2023-03-13T13:54:00.718Z,18.52
2023-03-13T13:56:46.579Z,18.52
2023-03-13T13:59:30.888Z,18.70
2023-03-13T14:02:22.377Z,18.73
2023-03-13T14:04:54.129Z,18.93
2023-03-13T14:07:28.488Z,18.97
2023-03-13T14:10:02.657Z,19.13
2023-03-13T14:12:31.095Z,19.10
2023-03-13T14:15:14.793Z,19.29
2023-03-13T14:17:44.299Z,19.21
2023-03-13T14:20:29.923Z,19.40
2023-03-13T14:23:01.497Z,19.47
2023-03-13T14:25:41.184Z,19.42
2023-03-13T14:28:16.817Z,19.36
2023-03-13T14:30:43.692Z,19.02
2023-03-13T14:33:10.448Z,18.99
2023-03-13T14:35:39.209Z,19.26
2023-03-13T14:38:05.782Z,19.45
2023-03-13T14:40:36.740Z,19.42
2023-03-13T14:43:04.341Z,19.46
2023-03-13T14:45:32.880Z,19.88
2023-03-13T14:48:04.759Z,20.10
2023-03-13T14:50:32.063Z,20.20
2023-03-13T14:53:04.216Z,20.03
2023-03-13T14:55:33.192Z,19.97
2023-03-13T14:58:02.850Z,19.74
2023-03-13T15:00:33.416Z,19.71
2023-03-13T15:03:24.869Z,19.51
2023-03-13T15:06:04.909Z,19.70
2023-03-13T15:08:32.610Z,19.84
2023-03-13T15:10:59.726Z,19.63
2023-03-13T15:13:32.360Z,19.47
2023-03-13T15:16:00.211Z,19.36
2023-03-13T15:18:28.841Z,19.29
2023-03-13T15:20:57.742Z,19.13
2023-03-13T15:23:24.791Z,18.90
2023-03-13T15:25:51.845Z,18.82
2023-03-13T15:28:19.665Z,18.86
2023-03-13T15:30:48.495Z,18.80
2023-03-13T15:33:16.748Z,18.67
2023-03-13T15:35:44.016Z,18.72
2023-03-13T15:38:13.938Z,18.55
2023-03-13T15:40:40.910Z,18.42
2023-03-13T15:43:08.668Z,18.31
2023-03-13T15:45:36.608Z,18.23
2023-03-13T15:48:03.540Z,18.20
2023-03-13T15:50:30.236Z,18.28
2023-03-13T15:52:57.375Z,18.29
2023-03-13T15:55:25.725Z,18.07
2023-03-13T15:57:52.299Z,18.36
2023-03-13T16:00:21.396Z,18.71
2023-03-13T16:02:52.638Z,18.98
2023-03-13T16:05:19.293Z,19.36
2023-03-13T16:07:45.847Z,19.41
2023-03-13T16:10:16.255Z,19.23
2023-03-13T16:12:42.760Z,18.97
2023-03-13T16:15:10.787Z,18.68
2023-03-13T16:17:37.866Z,18.31
2023-03-13T16:20:11.342Z,17.92
2023-03-13T16:22:37.752Z,17.60
2023-03-13T16:25:05.031Z,17.47
2023-03-13T16:27:31.381Z,17.29
2023-03-13T16:29:57.776Z,17.33
2023-03-13T16:32:24.882Z,17.50
2023-03-13T16:34:51.955Z,17.63
2023-03-13T16:37:20.035Z,17.60
2023-03-13T16:39:47.437Z,17.65
2023-03-13T16:42:13.881Z,17.66
2023-03-13T16:44:40.502Z,17.57
2023-03-13T16:47:19.446Z,17.42
2023-03-13T16:49:47.568Z,17.30
2023-03-13T16:52:15.929Z,17.09
2023-03-13T16:54:42.597Z,16.99
2023-03-13T16:57:11.178Z,16.86
2023-03-13T16:59:37.592Z,16.76
2023-03-13T17:02:04.308Z,16.52
2023-03-13T17:04:31.225Z,16.78
2023-03-13T17:07:00.580Z,16.50
2023-03-13T17:09:30.312Z,16.22
2023-03-13T17:11:56.724Z,16.04
2023-03-13T17:14:23.101Z,15.91
2023-03-13T17:16:49.521Z,15.72
2023-03-13T17:19:16.286Z,15.55
2023-03-13T17:21:42.756Z,15.36
2023-03-13T17:24:09.245Z,15.30
2023-03-13T17:26:38.116Z,15.20
2023-03-13T17:29:06.920Z,15.08
2023-03-13T17:31:37.642Z,15.00
2023-03-13T17:34:04.492Z,14.97
2023-03-13T17:36:31.432Z,14.88
2023-03-13T17:38:59.693Z,14.81
2023-03-13T17:41:31.272Z,14.75
2023-03-13T17:43:58.870Z,14.63
2023-03-13T17:46:33.210Z,14.55
2023-03-13T17:49:00.866Z,14.48
2023-03-13T17:51:29.228Z,14.34
2023-03-13T17:53:57.275Z,14.32
2023-03-13T17:56:25.636Z,14.27
2023-03-13T17:58:56.944Z,14.25
2023-03-13T18:01:25.835Z,14.22
2023-03-13T18:03:52.442Z,14.12
2023-03-13T18:06:22.400Z,14.07
2023-03-13T18:08:50.763Z,14.05
2023-03-13T18:11:18.183Z,14.03
2023-03-13T18:13:44.848Z,14.01
2023-03-13T18:16:17.980Z,14.05
2023-03-13T18:18:45.738Z,13.93
2023-03-13T18:21:12.345Z,13.88
2023-03-13T18:23:38.725Z,13.82
2023-03-13T18:26:22.971Z,13.75
2023-03-13T18:28:49.423Z,13.69
2023-03-13T18:31:16.454Z,13.61
2023-03-13T18:33:42.895Z,13.56
2023-03-13T18:36:18.379Z,13.61
2023-03-13T18:38:45.468Z,13.52
2023-03-13T18:41:12.097Z,13.42
2023-03-13T18:43:38.618Z,13.37
2023-03-13T18:46:05.759Z,13.34
2023-03-13T18:48:32.344Z,13.35
2023-03-13T18:50:58.844Z,13.30
2023-03-13T18:53:28.927Z,13.20
2023-03-13T18:55:55.936Z,13.09
2023-03-13T18:58:22.478Z,13.04
2023-03-13T19:00:49.156Z,13.08
2023-03-13T19:03:19.580Z,12.96
2023-03-13T19:05:46.178Z,12.89
2023-03-13T19:08:12.723Z,12.82
2023-03-13T19:10:40.570Z,12.77
2023-03-13T19:13:07.062Z,12.68
2023-03-13T19:15:33.798Z,12.60
2023-03-13T19:18:02.927Z,12.50
2023-03-13T19:20:30.184Z,12.52
2023-03-13T19:22:59.620Z,12.55
2023-03-13T19:25:26.261Z,12.57
2023-03-13T19:27:54.093Z,12.58
2023-03-13T19:30:24.041Z,12.46
2023-03-13T19:32:54.274Z,12.56
2023-03-13T19:35:23.778Z,12.63
2023-03-13T19:37:53.508Z,12.52
2023-03-13T19:40:26.401Z,12.44
2023-03-13T19:42:53.610Z,12.26
2023-03-13T19:45:21.307Z,12.40
2023-03-13T19:47:47.986Z,12.31
2023-03-13T19:50:19.492Z,12.45
2023-03-13T19:52:46.448Z,12.40
2023-03-13T19:55:13.939Z,12.35
2023-03-13T19:57:40.899Z,12.22
2023-03-13T20:00:16.394Z,12.24
2023-03-13T20:02:43.168Z,12.34
2023-03-13T20:05:12.545Z,12.25
2023-03-13T20:07:39.161Z,12.18
2023-03-13T20:10:06.689Z,11.87
2023-03-13T20:12:36.533Z,12.11
2023-03-13T20:15:03.756Z,12.14
2023-03-13T20:17:31.450Z,12.19
2023-03-13T20:19:57.944Z,12.09
2023-03-13T20:22:27.115Z,12.08
2023-03-13T20:24:55.187Z,12.08
2023-03-13T20:27:23.679Z,12.01
2023-03-13T20:29:50.347Z,12.04
2023-03-13T20:32:16.912Z,11.96
2023-03-13T20:34:44.372Z,11.93
2023-03-13T20:37:11.951Z,11.76
2023-03-13T20:39:38.520Z,11.75
2023-03-13T20:42:07.092Z,11.78
2023-03-13T20:44:33.650Z,11.68
2023-03-13T20:47:00.228Z,11.66
2023-03-13T20:49:29.119Z,11.65
2023-03-13T20:51:56.314Z,11.38
2023-03-13T20:54:22.927Z,11.43
2023-03-13T20:56:49.514Z,11.43
2023-03-13T20:59:16.084Z,11.39
2023-03-13T21:01:45.366Z,11.35
2023-03-13T21:04:12.073Z,11.26
2023-03-13T21:06:38.868Z,11.22
2023-03-13T21:09:06.084Z,11.10
2023-03-13T21:11:32.960Z,10.98
2023-03-13T21:14:01.606Z,11.10
2023-03-13T21:16:28.238Z,11.05
2023-03-13T21:18:56.942Z,11.11
2023-03-13T21:21:23.674Z,11.21
2023-03-13T21:23:52.386Z,11.22
2023-03-13T21:26:19.904Z,11.24
2023-03-13T21:28:47.254Z,11.44
2023-03-13T21:31:16.643Z,11.68
2023-03-13T21:33:44.605Z,11.85
2023-03-13T21:36:12.527Z,12.12
2023-03-13T21:38:39.494Z,12.24
2023-03-13T21:41:10.981Z,12.41
2023-03-13T21:43:40.705Z,12.55
2023-03-13T21:46:07.622Z,12.77
2023-03-13T21:48:34.262Z,12.88
2023-03-13T21:51:00.989Z,12.99
2023-03-13T21:53:27.489Z,13.00
2023-03-13T21:55:54.334Z,13.03
2023-03-13T21:58:20.711Z,13.07
2023-03-13T22:00:47.863Z,13.10
2023-03-13T22:03:14.471Z,13.06
2023-03-13T22:05:44.021Z,13.08
2023-03-13T22:08:10.897Z,13.13
2023-03-13T22:10:37.978Z,13.00
2023-03-13T22:13:04.790Z,12.92
2023-03-13T22:15:31.464Z,12.83
2023-03-13T22:17:58.889Z,12.20
2023-03-13T22:20:25.284Z,12.04
2023-03-13T22:22:51.804Z,11.99
2023-03-13T22:25:18.344Z,11.96
2023-03-13T22:27:44.720Z,11.99
2023-03-13T22:30:12.052Z,12.02
2023-03-13T22:32:38.518Z,12.11
2023-03-13T22:35:07.301Z,12.01
2023-03-13T22:37:33.882Z,11.95
2023-03-13T22:40:00.309Z,11.80
2023-03-13T22:42:26.937Z,11.66
2023-03-13T22:44:55.516Z,11.67
2023-03-13T22:47:22.240Z,11.68
2023-03-13T22:49:49.651Z,11.62
2023-03-13T22:52:16.804Z,11.57
2023-03-13T22:54:45.669Z,11.43
2023-03-13T22:57:12.146Z,11.45
2023-03-13T22:59:38.564Z,11.60
2023-03-13T23:02:05.231Z,11.48
2023-03-13T23:04:31.617Z,11.43
2023-03-13T23:06:58.003Z,11.45
2023-03-13T23:09:25.062Z,11.42
2023-03-13T23:11:51.680Z,11.26
2023-03-13T23:14:18.054Z,11.23
2023-03-13T23:16:44.710Z,11.14
2023-03-13T23:19:11.104Z,11.10
2023-03-13T23:21:37.528Z,11.07
2023-03-13T23:24:04.378Z,11.09
2023-03-13T23:26:31.460Z,11.09
2023-03-13T23:28:59.734Z,11.06
2023-03-13T23:31:26.306Z,10.96
2023-03-13T23:33:52.909Z,10.90
2023-03-13T23:36:19.445Z,10.81
2023-03-13T23:38:49.361Z,10.88
2023-03-13T23:41:15.847Z,10.85
2023-03-13T23:43:42.943Z,10.82
2023-03-13T23:46:15.958Z,10.82
2023-03-13T23:48:42.325Z,10.73
2023-03-13T23:51:09.065Z,10.76
2023-03-13T23:53:36.520Z,10.76
2023-03-13T23:56:03.318Z,10.83
2023-03-13T23:58:29.758Z,10.80
